| time (UTC) | temp F | wind direction | speed MPH | gust MPH | rain 1hr in | rain 24hr in | rain mn in | humidity % | barometer mb |
| 20260508054156 | 54 | 104 | 2.0 | 3.0 | 0.00 | 0.00 | 0.00 | 22 | 1235.5 |
| 20260508053653 | 55 | 57 | 3.0 | 3.0 | 0.00 | 0.00 | 0.00 | 20 | 1235.6 |
| 20260508053150 | 55 | 98 | 2.0 | 2.0 | 0.00 | 0.00 | 0.00 | 19 | 1235.8 |
| 20260508052648 | 56 | 83 | 2.0 | 3.0 | 0.00 | 0.00 | 0.00 | 18 | 1235.4 |
| 20260508052144 | 56 | 72 | 2.0 | 2.0 | 0.00 | 0.00 | 0.00 | 18 | 1235.5 |
| 20260508051641 | 56 | 79 | 2.0 | 2.0 | 0.00 | 0.00 | 0.00 | 18 | 1235.6 |
| 20260508051136 | 56 | 75 | 2.0 | 2.0 | 0.00 | 0.00 | 0.00 | 18 | 1235.6 |
| 20260508050632 | 56 | 84 | 2.0 | 3.0 | 0.00 | 0.00 | 0.00 | 18 | 1235.8 |
| 20260508050131 | 56 | 85 | 1.0 | 2.0 | 0.00 | 0.00 | 0.00 | 18 | 1235.6 |
| 20260508045626 | 56 | 100 | 1.0 | 2.0 | 0.00 | 0.00 | 0.00 | 19 | 1235.5 |
| 20260508045124 | 55 | 88 | 2.0 | 2.0 | 0.00 | 0.00 | 0.00 | 19 | 1235.4 |
| 20260508044621 | 55 | 91 | 1.0 | 2.0 | 0.00 | 0.00 | 0.00 | 20 | 1235.5 |
| 20260508044117 | 54 | 126 | 2.0 | 2.0 | 0.00 | 0.00 | 0.00 | 20 | 1235.5 |
| 20260508043614 | 53 | 105 | 1.0 | 2.0 | 0.00 | 0.00 | 0.00 | 22 | 1235.6 |
| 20260508043112 | 53 | 108 | 2.0 | 2.0 | 0.00 | 0.00 | 0.00 | 20 | 1235.6 |
| 20260508042608 | 54 | 107 | 2.0 | 2.0 | 0.00 | 0.00 | 0.00 | 20 | 1235.4 |
| 20260508042105 | 54 | 69 | 2.0 | 3.0 | 0.00 | 0.00 | 0.00 | 19 | 1235.5 |
| 20260508041601 | 55 | 57 | 2.0 | 3.0 | 0.00 | 0.00 | 0.00 | 18 | 1235.4 |
| 20260508041058 | 56 | 74 | 2.0 | 3.0 | 0.00 | 0.00 | 0.00 | 17 | 1235.4 |
| 20260508040555 | 58 | 62 | 2.0 | 4.0 | 0.00 | 0.00 | 0.00 | 16 | 1235.3 |
| 20260508040053 | 59 | 70 | 1.0 | 2.0 | 0.00 | 0.00 | 0.00 | 16 | 1235.5 |
| 20260508035549 | 58 | 53 | 1.0 | 2.0 | 0.00 | 0.00 | 0.00 | 16 | 1235.4 |
| 20260508035046 | 58 | 99 | 1.0 | 2.0 | 0.00 | 0.00 | 0.00 | 16 | 1235.2 |
| 20260508034543 | 58 | 69 | 2.0 | 3.0 | 0.00 | 0.00 | 0.00 | 16 | 1235.4 |
| 20260508034040 | 56 | 58 | 1.0 | 2.0 | 0.00 | 0.00 | 0.00 | 16 | 1235.2 |
| 20260508033538 | 56 | 89 | 1.0 | 3.0 | 0.00 | 0.00 | 0.00 | 16 | 1235.2 |
| 20260508033036 | 57 | 76 | 2.0 | 3.0 | 0.00 | 0.00 | 0.00 | 16 | 1235.2 |
| 20260508032532 | 57 | 68 | 1.0 | 2.0 | 0.00 | 0.00 | 0.00 | 15 | 1234.9 |
| 20260508032030 | 58 | 78 | 2.0 | 4.0 | 0.00 | 0.00 | 0.00 | 15 | 1234.9 |
| 20260508031527 | 59 | 67 | 2.0 | 3.0 | 0.00 | 0.00 | 0.00 | 14 | 1234.7 |
| 20260508031022 | 60 | 83 | 2.0 | 2.0 | 0.00 | 0.00 | 0.00 | 14 | 1234.9 |
| 20260508030520 | 62 | 69 | 2.0 | 2.0 | 0.00 | 0.00 | 0.00 | 13 | 1234.7 |
| 20260508030018 | 63 | 52 | 1.0 | 2.0 | 0.00 | 0.00 | 0.00 | 13 | 1234.6 |
| 20260508025513 | 64 | 63 | 0.0 | 2.0 | 0.00 | 0.00 | 0.00 | 12 | 1234.5 |
| 20260508025010 | 64 | 68 | 0.0 | 2.0 | 0.00 | 0.00 | 0.00 | 12 | 1234.5 |
| 20260508024506 | 64 | 11 | 0.0 | 2.0 | 0.00 | 0.00 | 0.00 | 11 | 1234.5 |
| 20260508024003 | 65 | 35 | 1.0 | 2.0 | 0.00 | 0.00 | 0.00 | 11 | 1234.4 |
| 20260508023500 | 65 | 45 | 1.0 | 1.0 | 0.00 | 0.00 | 0.00 | 11 | 1234.4 |
| 20260508022957 | 66 | 48 | 0.0 | 2.0 | 0.00 | 0.00 | 0.00 | 11 | 1234.2 |
| 20260508022453 | 66 | 328 | 1.0 | 2.0 | 0.00 | 0.00 | 0.00 | 11 | 1234.1 |
| 20260508021949 | 67 | 89 | 0.0 | 2.0 | 0.00 | 0.00 | 0.00 | 10 | 1234.1 |
| 20260508021446 | 68 | 36 | 0.0 | 2.0 | 0.00 | 0.00 | 0.00 | 10 | 1234.1 |
| 20260508020942 | 68 | 323 | 0.0 | 3.0 | 0.00 | 0.00 | 0.00 | 10 | 1233.9 |
| 20260508020440 | 69 | 5 | 0.0 | 2.0 | 0.00 | 0.00 | 0.00 | 10 | 1233.6 |
| 20260508015937 | 70 | 23 | 1.0 | 3.0 | 0.00 | 0.00 | 0.00 | 9 | 1233.8 |
| 20260508015435 | 70 | 328 | 3.0 | 5.0 | 0.00 | 0.00 | 0.00 | 9 | 1233.9 |
| 20260508014931 | 71 | 357 | 3.0 | 4.0 | 0.00 | 0.00 | 0.00 | 9 | 1233.6 |
| 20260508014428 | 71 | 349 | 2.0 | 5.0 | 0.00 | 0.00 | 0.00 | 9 | 1233.6 |
| 20260508013923 | 72 | 335 | 0.0 | 3.0 | 0.00 | 0.00 | 0.00 | 9 | 1233.6 |
| 20260508013420 | 72 | 337 | 3.0 | 5.0 | 0.00 | 0.00 | 0.00 | 9 | 1233.5 |
| 20260508012917 | 73 | 335 | 2.0 | 2.0 | 0.00 | 0.00 | 0.00 | 9 | 1233.5 |
| 20260508012414 | 73 | 340 | 0.0 | 2.0 | 0.00 | 0.00 | 0.00 | 10 | 1233.6 |
| 20260508011912 | 74 | 142 | 0.0 | 1.0 | 0.00 | 0.00 | 0.00 | 13 | 1233.5 |
| 20260508011410 | 74 | 278 | 0.0 | 5.0 | 0.00 | 0.00 | 0.00 | 12 | 1233.2 |
| 20260508010907 | 76 | 0 | 0.0 | 2.0 | 0.00 | 0.00 | 0.00 | 11 | 1233.3 |
| 20260508010404 | 77 | 183 | 1.0 | 2.0 | 0.00 | 0.00 | 0.00 | 11 | 1233.2 |
| 20260508005901 | 80 | 224 | 1.0 | 2.0 | 0.00 | 0.00 | 0.00 | 11 | 1233.3 |
| 20260508005357 | 81 | 0 | 0.0 | 2.0 | 0.00 | 0.00 | 0.00 | 10 | 1233.2 |
| 20260508004854 | 80 | 316 | 1.0 | 2.0 | 0.00 | 0.00 | 0.00 | 10 | 1233.3 |
| 20260508004350 | 81 | 115 | 0.0 | 3.0 | 0.00 | 0.00 | 0.00 | 10 | 1233.2 |
| 20260508003847 | 81 | 85 | 0.0 | 4.0 | 0.00 | 0.00 | 0.00 | 10 | 1233.2 |
| 20260508003344 | 81 | 300 | 1.0 | 2.0 | 0.00 | 0.00 | 0.00 | 10 | 1233.2 |
| 20260508002841 | 82 | 184 | 2.0 | 4.0 | 0.00 | 0.00 | 0.00 | 10 | 1233.3 |
| 20260508002338 | 83 | 334 | 1.0 | 2.0 | 0.00 | 0.00 | 0.00 | 10 | 1233.1 |
| 20260508001834 | 82 | 299 | 1.0 | 2.0 | 0.00 | 0.00 | 0.00 | 10 | 1233.2 |
| 20260508001330 | 80 | 338 | 0.0 | 2.0 | 0.00 | 0.00 | 0.00 | 10 | 1233.2 |
| 20260508000826 | 80 | 174 | 2.0 | 5.0 | 0.00 | 0.00 | 0.00 | 10 | 1233.3 |
| 20260508000323 | 81 | 199 | 2.0 | 2.0 | 0.00 | 0.00 | 0.00 | 10 | 1233.3 |
| 20260507235819 | 81 | 211 | 0.0 | 1.0 | 0.00 | 0.00 | 0.00 | 10 | 1233.4 |
| 20260507235317 | 80 | 12 | 2.0 | 4.0 | 0.00 | 0.00 | 0.00 | 10 | 1233.5 |
| 20260507234814 | 82 | 182 | 3.0 | 3.0 | 0.00 | 0.00 | 0.00 | 9 | 1233.2 |
| 20260507234310 | 81 | 173 | 2.0 | 2.0 | 0.00 | 0.00 | 0.00 | 9 | 1233.5 |
| 20260507233807 | 80 | 349 | 2.0 | 5.0 | 0.00 | 0.00 | 0.00 | 9 | 1233.4 |
| 20260507233305 | 82 | 340 | 3.0 | 6.0 | 0.00 | 0.00 | 0.00 | 9 | 1233.5 |
| 20260507232803 | 82 | 331 | 1.0 | 9.0 | 0.00 | 0.00 | 0.00 | 9 | 1233.4 |
| 20260507232259 | 80 | 269 | 0.0 | 4.0 | 0.00 | 0.00 | 0.00 | 9 | 1233.6 |
| 20260507231755 | 78 | 66 | 0.0 | 4.0 | 0.00 | 0.00 | 0.00 | 9 | 1233.5 |
| 20260507231252 | 80 | 327 | 9.0 | 9.0 | 0.00 | 0.00 | 0.00 | 9 | 1233.6 |
| 20260507230749 | 80 | 323 | 1.0 | 4.0 | 0.00 | 0.00 | 0.00 | 9 | 1233.8 |
| 20260507230247 | 79 | 199 | 2.0 | 6.0 | 0.00 | 0.00 | 0.00 | 9 | 1233.8 |
| 20260507225746 | 80 | 164 | 0.0 | 6.0 | 0.00 | 0.00 | 0.00 | 10 | 1234.0 |
| 20260507225242 | 79 | 321 | 0.0 | 4.0 | 0.00 | 0.00 | 0.00 | 9 | 1233.9 |
| 20260507224738 | 80 | 344 | 3.0 | 5.0 | 0.00 | 0.00 | 0.00 | 9 | 1234.1 |
| 20260507224235 | 80 | 334 | 3.0 | 5.0 | 0.00 | 0.00 | 0.00 | 9 | 1233.9 |
| 20260507223731 | 80 | 124 | 1.0 | 3.0 | 0.00 | 0.00 | 0.00 | 10 | 1234.0 |
| 20260507223228 | 78 | 153 | 0.0 | 3.0 | 0.00 | 0.00 | 0.00 | 9 | 1234.1 |
| 20260507222725 | 79 | 55 | 0.0 | 7.0 | 0.00 | 0.00 | 0.00 | 9 | 1234.2 |
| 20260507222221 | 79 | 320 | 4.0 | 11.0 | 0.00 | 0.00 | 0.00 | 9 | 1234.0 |
| 20260507221718 | 78 | 314 | 1.0 | 4.0 | 0.00 | 0.00 | 0.00 | 9 | 1234.1 |
| 20260507221214 | 78 | 25 | 2.0 | 4.0 | 0.00 | 0.00 | 0.00 | 9 | 1234.2 |
| 20260507220711 | 79 | 329 | 5.0 | 7.0 | 0.00 | 0.00 | 0.00 | 9 | 1234.2 |
| 20260507220209 | 78 | 26 | 0.0 | 4.0 | 0.00 | 0.00 | 0.00 | 9 | 1234.5 |
| 20260507215705 | 80 | 332 | 3.0 | 11.0 | 0.00 | 0.00 | 0.00 | 8 | 1234.6 |
| 20260507215203 | 80 | 61 | 1.0 | 3.0 | 0.00 | 0.00 | 0.00 | 8 | 1234.7 |
| 20260507214700 | 78 | 200 | 0.0 | 5.0 | 0.00 | 0.00 | 0.00 | 8 | 1234.9 |
| 20260507214156 | 79 | 331 | 3.0 | 5.0 | 0.00 | 0.00 | 0.00 | 8 | 1234.9 |
| 20260507213652 | 79 | 89 | 0.0 | 4.0 | 0.00 | 0.00 | 0.00 | 8 | 1235.1 |
| 20260507213150 | 79 | 280 | 1.0 | 2.0 | 0.00 | 0.00 | 0.00 | 8 | 1235.1 |
| 20260507212646 | 79 | 215 | 3.0 | 4.0 | 0.00 | 0.00 | 0.00 | 8 | 1235.3 |
| 20260507212143 | 79 | 76 | 1.0 | 3.0 | 0.00 | 0.00 | 0.00 | 9 | 1235.6 |
| 20260507211640 | 78 | 341 | 0.0 | 2.0 | 0.00 | 0.00 | 0.00 | 9 | 1235.4 |
| 20260507211135 | 78 | 356 | 3.0 | 7.0 | 0.00 | 0.00 | 0.00 | 9 | 1235.6 |
| 20260507210633 | 77 | 313 | 2.0 | 3.0 | 0.00 | 0.00 | 0.00 | 10 | 1235.9 |
| 20260507210129 | 77 | 212 | 2.0 | 5.0 | 0.00 | 0.00 | 0.00 | 12 | 1235.8 |
| 20260507205626 | 76 | 189 | 2.0 | 4.0 | 0.00 | 0.00 | 0.00 | 11 | 1235.9 |
| 20260507205122 | 75 | 150 | 3.0 | 3.0 | 0.00 | 0.00 | 0.00 | 12 | 1236.1 |
| 20260507204619 | 74 | 352 | 2.0 | 2.0 | 0.00 | 0.00 | 0.00 | 12 | 1236.1 |
| 20260507204116 | 74 | 0 | 1.0 | 6.0 | 0.00 | 0.00 | 0.00 | 11 | 1236.2 |
| 20260507203614 | 76 | 320 | 5.0 | 9.0 | 0.00 | 0.00 | 0.00 | 12 | 1236.2 |
| 20260507203111 | 76 | 285 | 1.0 | 3.0 | 0.00 | 0.00 | 0.00 | 13 | 1236.5 |
| 20260507202607 | 75 | 139 | 2.0 | 2.0 | 0.00 | 0.00 | 0.00 | 15 | 1236.5 |
| 20260507202104 | 74 | 220 | 0.0 | 5.0 | 0.00 | 0.00 | 0.00 | 14 | 1236.7 |
| 20260507201559 | 75 | 98 | 2.0 | 5.0 | 0.00 | 0.00 | 0.00 | 14 | 1236.6 |
| 20260507201055 | 75 | 255 | 0.0 | 3.0 | 0.00 | 0.00 | 0.00 | 14 | 1236.7 |
| 20260507200551 | 76 | 44 | 0.0 | 3.0 | 0.00 | 0.00 | 0.00 | 14 | 1236.7 |
| 20260507200047 | 74 | 79 | 1.0 | 2.0 | 0.00 | 0.00 | 0.00 | 14 | 1236.8 |
| 20260507195545 | 73 | 153 | 1.0 | 4.0 | 0.00 | 0.00 | 0.00 | 16 | 1237.2 |
| 20260507195042 | 73 | 354 | 0.0 | 3.0 | 0.00 | 0.00 | 0.00 | 14 | 1237.2 |
| 20260507194538 | 74 | 154 | 0.0 | 2.0 | 0.00 | 0.00 | 0.00 | 16 | 1237.0 |
| 20260507194034 | 73 | 121 | 0.0 | 3.0 | 0.00 | 0.00 | 0.00 | 16 | 1237.2 |
| 20260507193532 | 72 | 75 | 0.0 | 4.0 | 0.00 | 0.00 | 0.00 | 17 | 1237.4 |
| 20260507193029 | 71 | 151 | 0.0 | 3.0 | 0.00 | 0.00 | 0.00 | 18 | 1237.5 |
| 20260507192525 | 71 | 243 | 0.0 | 5.0 | 0.00 | 0.00 | 0.00 | 18 | 1237.4 |
| 20260507192022 | 70 | 124 | 2.0 | 4.0 | 0.00 | 0.00 | 0.00 | 19 | 1237.7 |
| 20260507191517 | 70 | 193 | 2.0 | 6.0 | 0.00 | 0.00 | 0.00 | 18 | 1237.7 |
| 20260507191014 | 70 | 142 | 4.0 | 5.0 | 0.00 | 0.00 | 0.00 | 20 | 1237.7 |
| 20260507190512 | 70 | 140 | 2.0 | 5.0 | 0.00 | 0.00 | 0.00 | 18 | 1237.9 |
| 20260507190010 | 70 | 165 | 0.0 | 2.0 | 0.00 | 0.00 | 0.00 | 20 | 1238.0 |
| 20260507185508 | 69 | 328 | 1.0 | 2.0 | 0.00 | 0.00 | 0.00 | 20 | 1238.1 |
| 20260507185004 | 70 | 193 | 3.0 | 3.0 | 0.00 | 0.00 | 0.00 | 19 | 1238.3 |
| 20260507184502 | 68 | 327 | 0.0 | 2.0 | 0.00 | 0.00 | 0.00 | 21 | 1238.4 |
| 20260507184000 | 67 | 318 | 2.0 | 6.0 | 0.00 | 0.00 | 0.00 | 21 | 1238.7 |
| 20260507183456 | 67 | 177 | 5.0 | 5.0 | 0.00 | 0.00 | 0.00 | 21 | 1238.4 |
| 20260507182953 | 67 | 280 | 1.0 | 3.0 | 0.00 | 0.00 | 0.00 | 21 | 1238.6 |
| 20260507182449 | 66 | 156 | 1.0 | 9.0 | 0.00 | 0.00 | 0.00 | 22 | 1238.9 |
| 20260507181945 | 66 | 186 | 2.0 | 4.0 | 0.00 | 0.00 | 0.00 | 22 | 1238.9 |
| 20260507181442 | 66 | 180 | 4.0 | 6.0 | 0.00 | 0.00 | 0.00 | 22 | 1238.9 |
| 20260507180938 | 65 | 10 | 1.0 | 3.0 | 0.00 | 0.00 | 0.00 | 22 | 1239.1 |
| 20260507180435 | 67 | 32 | 3.0 | 4.0 | 0.00 | 0.00 | 0.00 | 21 | 1239.1 |
| 20260507175931 | 66 | 60 | 1.0 | 3.0 | 0.00 | 0.00 | 0.00 | 22 | 1239.0 |
| 20260507175428 | 66 | 31 | 3.0 | 4.0 | 0.00 | 0.00 | 0.00 | 22 | 1239.3 |
| 20260507174926 | 66 | 59 | 2.0 | 4.0 | 0.00 | 0.00 | 0.00 | 22 | 1239.3 |
| 20260507174423 | 66 | 45 | 0.0 | 4.0 | 0.00 | 0.00 | 0.00 | 23 | 1239.4 |
| 20260507173920 | 66 | 140 | 1.0 | 2.0 | 0.00 | 0.00 | 0.00 | 24 | 1239.6 |
| 20260507173417 | 65 | 75 | 0.0 | 3.0 | 0.00 | 0.00 | 0.00 | 24 | 1239.7 |
| 20260507172914 | 65 | 38 | 2.0 | 4.0 | 0.00 | 0.00 | 0.00 | 24 | 1239.7 |
| 20260507172411 | 65 | 52 | 0.0 | 5.0 | 0.00 | 0.00 | 0.00 | 23 | 1239.5 |
| 20260507171906 | 63 | 47 | 1.0 | 3.0 | 0.00 | 0.00 | 0.00 | 26 | 1239.7 |
| 20260507171403 | 63 | 265 | 2.0 | 4.0 | 0.00 | 0.00 | 0.00 | 24 | 1239.8 |
| 20260507170900 | 64 | 76 | 2.0 | 5.0 | 0.00 | 0.00 | 0.00 | 24 | 1239.8 |
| 20260507170357 | 64 | 55 | 3.0 | 3.0 | 0.00 | 0.00 | 0.00 | 25 | 1240.2 |
| 20260507165853 | 62 | 99 | 1.0 | 4.0 | 0.00 | 0.00 | 0.00 | 26 | 1240.2 |
| 20260507165349 | 62 | 338 | 0.0 | 3.0 | 0.00 | 0.00 | 0.00 | 25 | 1240.1 |
| 20260507164845 | 64 | 48 | 2.0 | 4.0 | 0.00 | 0.00 | 0.00 | 25 | 1240.2 |
| 20260507164342 | 63 | 27 | 1.0 | 2.0 | 0.00 | 0.00 | 0.00 | 26 | 1240.3 |
| 20260507163839 | 63 | 75 | 2.0 | 4.0 | 0.00 | 0.00 | 0.00 | 26 | 1240.4 |
| 20260507163337 | 60 | 68 | 2.0 | 3.0 | 0.00 | 0.00 | 0.00 | 29 | 1240.3 |
| 20260507162833 | 61 | 73 | 2.0 | 3.0 | 0.00 | 0.00 | 0.00 | 29 | 1240.3 |
| 20260507162329 | 60 | 86 | 2.0 | 5.0 | 0.00 | 0.00 | 0.00 | 31 | 1240.5 |
| 20260507161826 | 60 | 71 | 2.0 | 4.0 | 0.00 | 0.00 | 0.00 | 32 | 1240.4 |
| 20260507161322 | 60 | 82 | 2.0 | 3.0 | 0.00 | 0.00 | 0.00 | 32 | 1240.4 |
| 20260507160819 | 59 | 52 | 2.0 | 4.0 | 0.00 | 0.00 | 0.00 | 33 | 1240.7 |
| 20260507160315 | 58 | 91 | 2.0 | 4.0 | 0.00 | 0.00 | 0.00 | 34 | 1240.7 |
| 20260507155811 | 57 | 60 | 4.0 | 6.0 | 0.00 | 0.00 | 0.00 | 34 | 1240.7 |
| 20260507155307 | 57 | 43 | 4.0 | 4.0 | 0.00 | 0.00 | 0.00 | 34 | 1240.7 |
| 20260507154804 | 57 | 69 | 1.0 | 3.0 | 0.00 | 0.00 | 0.00 | 35 | 1240.5 |
| 20260507154301 | 56 | 53 | 2.0 | 4.0 | 0.00 | 0.00 | 0.00 | 37 | 1240.8 |
| 20260507153758 | 55 | 45 | 5.0 | 6.0 | 0.00 | 0.00 | 0.00 | 38 | 1240.9 |
| 20260507153254 | 55 | 61 | 4.0 | 5.0 | 0.00 | 0.00 | 0.00 | 39 | 1241.0 |
| 20260507152751 | 55 | 60 | 0.0 | 4.0 | 0.00 | 0.00 | 0.00 | 40 | 1240.8 |
| 20260507152248 | 54 | 59 | 4.0 | 5.0 | 0.00 | 0.00 | 0.00 | 41 | 1241.0 |
| 20260507151743 | 53 | 86 | 2.0 | 4.0 | 0.00 | 0.00 | 0.00 | 42 | 1240.9 |
| 20260507151240 | 53 | 78 | 2.0 | 4.0 | 0.00 | 0.00 | 0.00 | 43 | 1240.9 |
| 20260507150737 | 52 | 64 | 3.0 | 6.0 | 0.00 | 0.00 | 0.00 | 43 | 1240.9 |
| 20260507150234 | 51 | 73 | 3.0 | 6.0 | 0.00 | 0.00 | 0.00 | 46 | 1241.1 |
| 20260507145730 | 51 | 65 | 4.0 | 8.0 | 0.00 | 0.00 | 0.00 | 46 | 1241.1 |
| 20260507145226 | 50 | 72 | 4.0 | 6.0 | 0.00 | 0.00 | 0.00 | 48 | 1241.1 |
| 20260507144723 | 49 | 65 | 3.0 | 6.0 | 0.00 | 0.00 | 0.00 | 50 | 1241.1 |
| 20260507144221 | 48 | 82 | 4.0 | 5.0 | 0.00 | 0.00 | 0.00 | 52 | 1241.4 |
| 20260507143717 | 48 | 53 | 5.0 | 9.0 | 0.00 | 0.00 | 0.00 | 53 | 1241.4 |
| 20260507143215 | 47 | 59 | 4.0 | 9.0 | 0.00 | 0.00 | 0.00 | 53 | 1241.2 |
| 20260507142710 | 47 | 67 | 6.0 | 7.0 | 0.00 | 0.00 | 0.00 | 53 | 1241.1 |
| 20260507142207 | 47 | 69 | 5.0 | 6.0 | 0.00 | 0.00 | 0.00 | 52 | 1241.4 |
| 20260507141703 | 46 | 62 | 4.0 | 6.0 | 0.00 | 0.00 | 0.00 | 53 | 1241.1 |
| 20260507141200 | 46 | 70 | 4.0 | 6.0 | 0.00 | 0.00 | 0.00 | 53 | 1241.2 |
| 20260507140657 | 46 | 64 | 4.0 | 8.0 | 0.00 | 0.00 | 0.00 | 53 | 1241.2 |
| 20260507140154 | 45 | 53 | 5.0 | 8.0 | 0.00 | 0.00 | 0.00 | 54 | 1241.4 |
| 20260507135651 | 45 | 58 | 5.0 | 7.0 | 0.00 | 0.00 | 0.00 | 55 | 1241.2 |
| 20260507135148 | 44 | 58 | 5.0 | 7.0 | 0.00 | 0.00 | 0.00 | 56 | 1241.1 |
| 20260507134645 | 44 | 60 | 5.0 | 7.0 | 0.00 | 0.00 | 0.00 | 54 | 1241.4 |
| 20260507134141 | 44 | 59 | 4.0 | 9.0 | 0.00 | 0.00 | 0.00 | 54 | 1241.5 |
| 20260507133637 | 44 | 51 | 4.0 | 9.0 | 0.00 | 0.00 | 0.00 | 55 | 1241.5 |
| 20260507133135 | 44 | 100 | 2.0 | 6.0 | 0.00 | 0.00 | 0.00 | 55 | 1241.5 |
| 20260507132632 | 43 | 57 | 5.0 | 8.0 | 0.00 | 0.00 | 0.00 | 55 | 1241.4 |
| 20260507132128 | 43 | 351 | 4.0 | 5.0 | 0.00 | 0.00 | 0.00 | 56 | 1241.2 |
| 20260507131624 | 42 | 341 | 4.0 | 5.0 | 0.00 | 0.00 | 0.00 | 56 | 1241.2 |
| 20260507131122 | 42 | 3 | 2.0 | 4.0 | 0.00 | 0.00 | 0.00 | 57 | 1241.1 |
| 20260507130619 | 41 | 33 | 4.0 | 4.0 | 0.00 | 0.00 | 0.00 | 60 | 1241.1 |
| 20260507130117 | 41 | 12 | 2.0 | 4.0 | 0.00 | 0.00 | 0.00 | 63 | 1241.0 |
| 20260507125615 | 40 | 37 | 2.0 | 5.0 | 0.00 | 0.00 | 0.00 | 65 | 1241.2 |
| 20260507125112 | 40 | 51 | 2.0 | 3.0 | 0.00 | 0.00 | 0.00 | 66 | 1241.1 |
| 20260507124608 | 40 | 9 | 3.0 | 4.0 | 0.00 | 0.00 | 0.00 | 67 | 1241.0 |
| 20260507124107 | 39 | 345 | 2.0 | 4.0 | 0.00 | 0.00 | 0.00 | 68 | 1241.1 |
| 20260507123604 | 39 | 49 | 3.0 | 3.0 | 0.00 | 0.00 | 0.00 | 68 | 1241.0 |
| 20260507123101 | 39 | 96 | 3.0 | 4.0 | 0.00 | 0.00 | 0.00 | 68 | 1241.0 |
| 20260507122556 | 38 | 58 | 2.0 | 3.0 | 0.00 | 0.00 | 0.00 | 68 | 1240.8 |
| 20260507122052 | 38 | 65 | 2.0 | 4.0 | 0.00 | 0.00 | 0.00 | 68 | 1240.8 |
| 20260507121548 | 38 | 74 | 3.0 | 5.0 | 0.00 | 0.00 | 0.00 | 67 | 1240.8 |
| 20260507121044 | 39 | 36 | 2.0 | 4.0 | 0.00 | 0.00 | 0.00 | 67 | 1240.7 |
| 20260507120540 | 39 | 24 | 2.0 | 5.0 | 0.00 | 0.00 | 0.00 | 66 | 1240.8 |
| 20260507120038 | 39 | 5 | 2.0 | 4.0 | 0.00 | 0.00 | 0.00 | 66 | 1240.7 |
| 20260507115534 | 39 | 25 | 2.0 | 4.0 | 0.00 | 0.00 | 0.00 | 65 | 1240.7 |
| 20260507115030 | 39 | 57 | 2.0 | 4.0 | 0.00 | 0.00 | 0.00 | 65 | 1240.5 |
| 20260507114526 | 39 | 348 | 4.0 | 4.0 | 0.00 | 0.00 | 0.00 | 65 | 1240.7 |
| 20260507114023 | 39 | 16 | 4.0 | 4.0 | 0.00 | 0.00 | 0.00 | 64 | 1240.7 |
| 20260507113520 | 39 | 72 | 2.0 | 5.0 | 0.00 | 0.00 | 0.00 | 64 | 1240.4 |
| 20260507113017 | 39 | 56 | 2.0 | 4.0 | 0.00 | 0.00 | 0.00 | 63 | 1240.7 |
| 20260507112515 | 39 | 16 | 3.0 | 4.0 | 0.00 | 0.00 | 0.00 | 62 | 1240.5 |
| 20260507112012 | 39 | 38 | 2.0 | 4.0 | 0.00 | 0.00 | 0.00 | 61 | 1240.5 |
| 20260507111510 | 39 | 26 | 2.0 | 3.0 | 0.00 | 0.00 | 0.00 | 59 | 1240.5 |
| 20260507111005 | 39 | 38 | 3.0 | 4.0 | 0.00 | 0.00 | 0.00 | 57 | 1240.5 |
| 20260507110501 | 39 | 43 | 3.0 | 5.0 | 0.00 | 0.00 | 0.00 | 55 | 1240.7 |
| 20260507105958 | 40 | 13 | 2.0 | 3.0 | 0.00 | 0.00 | 0.00 | 53 | 1240.9 |
| 20260507105455 | 40 | 74 | 3.0 | 4.0 | 0.00 | 0.00 | 0.00 | 52 | 1240.5 |
| 20260507104951 | 41 | 50 | 2.0 | 4.0 | 0.00 | 0.00 | 0.00 | 51 | 1240.5 |
| 20260507104449 | 41 | 0 | 4.0 | 5.0 | 0.00 | 0.00 | 0.00 | 50 | 1240.7 |
| 20260507103944 | 41 | 69 | 3.0 | 4.0 | 0.00 | 0.00 | 0.00 | 50 | 1240.4 |
| 20260507103441 | 41 | 74 | 3.0 | 5.0 | 0.00 | 0.00 | 0.00 | 49 | 1240.7 |
| 20260507102937 | 41 | 76 | 2.0 | 3.0 | 0.00 | 0.00 | 0.00 | 47 | 1240.7 |
| 20260507102434 | 41 | 70 | 3.0 | 5.0 | 0.00 | 0.00 | 0.00 | 44 | 1240.5 |
| 20260507101931 | 41 | 27 | 4.0 | 4.0 | 0.00 | 0.00 | 0.00 | 42 | 1240.4 |
| 20260507101426 | 40 | 41 | 3.0 | 4.0 | 0.00 | 0.00 | 0.00 | 41 | 1240.3 |
| 20260507100922 | 40 | 48 | 2.0 | 4.0 | 0.00 | 0.00 | 0.00 | 41 | 1240.4 |
| 20260507100420 | 40 | 28 | 2.0 | 3.0 | 0.00 | 0.00 | 0.00 | 40 | 1240.5 |
| 20260507095918 | 40 | 5 | 3.0 | 3.0 | 0.00 | 0.00 | 0.00 | 39 | 1240.5 |
| 20260507095415 | 40 | 47 | 0.0 | 3.0 | 0.00 | 0.00 | 0.00 | 39 | 1240.7 |
| 20260507094912 | 40 | 81 | 2.0 | 3.0 | 0.00 | 0.00 | 0.00 | 39 | 1240.5 |
| 20260507094408 | 40 | 73 | 2.0 | 4.0 | 0.00 | 0.00 | 0.00 | 38 | 1240.3 |
| 20260507093905 | 41 | 358 | 3.0 | 5.0 | 0.00 | 0.00 | 0.00 | 38 | 1240.4 |
| 20260507093403 | 41 | 8 | 2.0 | 5.0 | 0.00 | 0.00 | 0.00 | 37 | 1240.3 |
| 20260507092902 | 42 | 55 | 2.0 | 3.0 | 0.00 | 0.00 | 0.00 | 37 | 1240.5 |
| 20260507092357 | 43 | 36 | 2.0 | 4.0 | 0.00 | 0.00 | 0.00 | 36 | 1240.4 |
| 20260507091854 | 43 | 55 | 3.0 | 3.0 | 0.00 | 0.00 | 0.00 | 35 | 1240.5 |
| 20260507091350 | 44 | 46 | 2.0 | 3.0 | 0.00 | 0.00 | 0.00 | 35 | 1240.5 |
| 20260507090846 | 44 | 63 | 4.0 | 4.0 | 0.00 | 0.00 | 0.00 | 34 | 1240.3 |
| 20260507090342 | 43 | 334 | 5.0 | 6.0 | 0.00 | 0.00 | 0.00 | 35 | 1240.3 |
| 20260507085840 | 43 | 68 | 2.0 | 4.0 | 0.00 | 0.00 | 0.00 | 36 | 1240.4 |
| 20260507085336 | 43 | 92 | 2.0 | 3.0 | 0.00 | 0.00 | 0.00 | 36 | 1240.5 |
| 20260507084834 | 44 | 75 | 3.0 | 3.0 | 0.00 | 0.00 | 0.00 | 34 | 1240.3 |
| 20260507084330 | 44 | 69 | 3.0 | 5.0 | 0.00 | 0.00 | 0.00 | 34 | 1240.3 |
| 20260507083828 | 44 | 68 | 3.0 | 5.0 | 0.00 | 0.00 | 0.00 | 34 | 1240.1 |
| 20260507083324 | 44 | 59 | 4.0 | 5.0 | 0.00 | 0.00 | 0.00 | 34 | 1240.1 |
| 20260507082820 | 42 | 49 | 5.0 | 6.0 | 0.00 | 0.00 | 0.00 | 36 | 1240.1 |
| 20260507082316 | 41 | 74 | 4.0 | 4.0 | 0.00 | 0.00 | 0.00 | 37 | 1240.0 |
| 20260507081814 | 42 | 69 | 3.0 | 4.0 | 0.00 | 0.00 | 0.00 | 37 | 1239.8 |
| 20260507081309 | 42 | 39 | 2.0 | 4.0 | 0.00 | 0.00 | 0.00 | 37 | 1239.8 |
| 20260507080806 | 42 | 17 | 2.0 | 3.0 | 0.00 | 0.00 | 0.00 | 37 | 1239.7 |
| 20260507080302 | 43 | 356 | 2.0 | 4.0 | 0.00 | 0.00 | 0.00 | 36 | 1239.7 |
| 20260507075757 | 44 | 42 | 2.0 | 3.0 | 0.00 | 0.00 | 0.00 | 35 | 1239.7 |
| 20260507075254 | 45 | 79 | 2.0 | 4.0 | 0.00 | 0.00 | 0.00 | 34 | 1239.7 |
| 20260507074750 | 45 | 2 | 4.0 | 4.0 | 0.00 | 0.00 | 0.00 | 33 | 1239.6 |
| 20260507074249 | 44 | 2 | 2.0 | 4.0 | 0.00 | 0.00 | 0.00 | 34 | 1239.6 |
| 20260507073745 | 44 | 25 | 0.0 | 5.0 | 0.00 | 0.00 | 0.00 | 35 | 1239.7 |
| 20260507073241 | 44 | 45 | 2.0 | 4.0 | 0.00 | 0.00 | 0.00 | 35 | 1239.7 |
| 20260507072739 | 44 | 23 | 3.0 | 4.0 | 0.00 | 0.00 | 0.00 | 35 | 1239.6 |
| 20260507072237 | 45 | 2 | 2.0 | 3.0 | 0.00 | 0.00 | 0.00 | 34 | 1239.6 |
| 20260507071734 | 45 | 42 | 2.0 | 4.0 | 0.00 | 0.00 | 0.00 | 33 | 1239.5 |
| 20260507071230 | 46 | 326 | 2.0 | 4.0 | 0.00 | 0.00 | 0.00 | 33 | 1239.6 |
| 20260507070727 | 45 | 337 | 3.0 | 3.0 | 0.00 | 0.00 | 0.00 | 33 | 1239.6 |
| 20260507070224 | 44 | 70 | 2.0 | 3.0 | 0.00 | 0.00 | 0.00 | 35 | 1239.5 |
| 20260507065721 | 43 | 78 | 2.0 | 2.0 | 0.00 | 0.00 | 0.00 | 36 | 1239.5 |
| 20260507065218 | 43 | 57 | 2.0 | 3.0 | 0.00 | 0.00 | 0.00 | 37 | 1239.5 |
| 20260507064715 | 43 | 33 | 2.0 | 3.0 | 0.00 | 0.00 | 0.00 | 37 | 1239.4 |
| 20260507064214 | 44 | 79 | 2.0 | 2.0 | 0.00 | 0.00 | 0.00 | 37 | 1239.4 |
| 20260507063711 | 44 | 59 | 2.0 | 4.0 | 0.00 | 0.00 | 0.00 | 36 | 1239.5 |
| 20260507063207 | 44 | 55 | 2.0 | 3.0 | 0.00 | 0.00 | 0.00 | 36 | 1239.6 |
| 20260507062704 | 44 | 49 | 2.0 | 4.0 | 0.00 | 0.00 | 0.00 | 37 | 1239.5 |
| 20260507062202 | 44 | 76 | 2.0 | 4.0 | 0.00 | 0.00 | 0.00 | 37 | 1239.5 |
| 20260507061700 | 44 | 39 | 2.0 | 3.0 | 0.00 | 0.00 | 0.00 | 37 | 1239.3 |
| 20260507061157 | 44 | 89 | 2.0 | 3.0 | 0.00 | 0.00 | 0.00 | 37 | 1239.5 |
| 20260507060655 | 45 | 69 | 2.0 | 3.0 | 0.00 | 0.00 | 0.00 | 37 | 1239.3 |
| 20260507060151 | 45 | 30 | 0.0 | 3.0 | 0.00 | 0.00 | 0.00 | 37 | 1239.4 |
| 20260507055647 | 45 | 350 | 1.0 | 3.0 | 0.00 | 0.00 | 0.00 | 36 | 1239.3 |
| 20260507055143 | 45 | 63 | 3.0 | 4.0 | 0.00 | 0.00 | 0.00 | 36 | 1239.4 |
| 20260507054639 | 46 | 31 | 2.0 | 3.0 | 0.00 | 0.00 | 0.00 | 37 | 1239.4 |